• Join FlightAware (Why Join?)
  • Login
  • US Flag 
09:08PM EST


 

Airport Tracker/Info


-or-


 

Live Flight TrackerFlight Track Log ✈ AAL1491 ✈ 26-May-2013 ✈ KDFW - KSFO

Flight Track Log - Related Links

Times and Time Zones

All times are in EDT time to prevent confusion due to time zone crossing. See the AAL1491 flight status page for this flight to view local times or setup timezone preferences in your user account.

Time Position Orientation Groundspeed Altitude Reporting Facility
EDT Latitude Longitude Course Direction KTS MPH feet Rate Location/Type
03:34PM 32.8610 -97.0550 191° South 176 203 2,100  Level FlightAware
03:34PM 32.8480 -97.0580 191° South 195 224 2,400 1,380 Climbing FlightAware
03:35PM 32.8260 -97.0630 191° South 224 258 3,000 2,400 Climbing FlightAware
03:35PM 32.7960 -97.0700 191° South 216 249 4,600 2,820 Climbing FlightAware
03:36PM 32.7840 -97.0800 215° Southwest 226 260 5,100 1,800 Climbing FlightAware
03:36PM 32.7780 -97.0990 249° West 245 282 5,500 2,100 Climbing FlightAware
03:36PM 32.7800 -97.1320 274° West 259 298 6,500 2,400 Climbing FlightAware
03:37PM 32.7850 -97.1820 277° West 276 318 7,800 2,460 Climbing FlightAware
03:37PM 32.7970 -97.2220 290° West 286 329 9,000 2,760 Climbing FlightAware
03:38PM 32.8180 -97.2800 293° West 286 329 10,900 2,580 Climbing FlightAware
03:39PM 32.8390 -97.3390 293° West 295 339 12,600 2,520 Climbing FlightAware
03:39PM 32.8640 -97.4070 294° West 307 353 14,500 1,920 Climbing FlightAware
03:40PM 32.8920 -97.4870 293° West 310 357 15,800 2,460 Climbing FlightAware
03:41PM 32.9180 -97.5580 294° West 328 377 18,400 3,000 Climbing FlightAware
03:42PM 32.9460 -97.6340 294° West 322 371 20,000 1,140 Climbing FlightAware
03:42PM 32.9710 -97.6990 295° West 322 371 20,100 480 Climbing FlightAware
03:43PM 33.0010 -97.7680 297° West 331 381 20,700 1,020 Climbing FlightAware
03:44PM 33.0360 -97.8240 307° West 347 399 21,500 600 Climbing FlightAware
03:44PM 33.0660 -97.8740 306° West 347 399 21,500 840 Level FlightAware
03:45PM 33.1090 -97.9420 307° West 408 470 22,500 1,680 Climbing FlightAware
03:46PM 33.1780 -98.0560 306° West 424 488 24,100 1,260 Climbing FlightAware
03:47PM 33.2220 -98.1740 294° West 428 493 25,000 540 Climbing FlightAware
03:47PM 33.2430 -98.2490 289° West 428 493 25,000  Level FlightAware
03:48PM 33.2640 -98.3190 290° West 428 493 25,000 3,060 Level FlightAware
03:49PM 33.2970 -98.4560 286° West 433 498 29,300 2,880 Climbing FlightAware
03:50PM 33.3190 -98.5440 287° West 433 498 29,400 960 Climbing FlightAware
03:50PM 33.3460 -98.6440 288° West 437 503 30,700 960 Climbing FlightAware
03:51PM 33.3640 -98.7140 287° West 437 503 30,700  Level FlightAware
03:52PM 33.3880 -98.8090 287° West 437 503 30,700  Level FlightAware
03:52PM 33.4050 -98.8760 287° West 437 503 30,700  Level FlightAware
03:53PM 33.4290 -98.9720 287° West 437 503 30,700  Level FlightAware
03:54PM 33.4480 -99.0450 287° West 437 503 30,700  Level FlightAware
03:54PM 33.4720 -99.1400 287° West 437 503 30,700  Level FlightAware
03:56PM 33.5080 -99.2800 287° West 437 503 30,700  Level FlightAware
03:56PM 33.5270 -99.3550 287° West 437 503 30,700  Level FlightAware
03:57PM 33.5500 -99.4450 287° West 437 503 30,700  Level FlightAware
03:58PM 33.5680 -99.5160 287° West 437 503 30,700  Level FlightAware
03:58PM 33.5930 -99.6150 287° West 437 503 30,700  Level FlightAware
03:59PM 33.6110 -99.6860 287° West 437 503 30,700 5,040 Level FlightAware
04:00PM 33.8047 -99.8756 287° West 417 480 38,000 3,960 Climbing Fort Worth Center
04:01PM 33.8525 -99.9969 295° West 412 474 38,000  Level Fort Worth Center
04:02PM 33.8997 -100.1236 294° West 412 474 38,000  Level Fort Worth Center
04:03PM 33.9514 -100.2478 297° West 412 474 38,000  Level Fort Worth Center
04:04PM 33.9964 -100.3744 293° West 412 474 38,000  Level Fort Worth Center
04:05PM 34.0456 -100.4967 296° West 412 474 38,000  Level Fort Worth Center
04:06PM 34.0925 -100.6211 295° West 407 468 38,000  Level Fort Worth Center
04:07PM 34.1394 -100.7458 294° West 402 463 38,000  Level Fort Worth Center
04:08PM 34.1839 -100.8706 293° West 402 463 38,000  Level Fort Worth Center
04:10PM 34.2978 -101.1783 294° West 410 472 38,000  Level Albuquerque Center
04:11PM 34.3447 -101.3019 295° West 407 468 38,000  Level Albuquerque Center
04:12PM 34.3906 -101.4292 294° West 410 472 38,000  Level Albuquerque Center
04:13PM 34.4369 -101.5536 294° West 407 468 38,000  Level Albuquerque Center
04:14PM 34.4822 -101.6792 294° West 406 467 38,000  Level Albuquerque Center
04:15PM 34.5278 -101.8075 293° West 410 472 38,000  Level Albuquerque Center
04:16PM 34.5733 -101.9314 294° West 404 465 38,000  Level Albuquerque Center
04:17PM 34.6175 -102.0558 293° West 401 461 38,000  Level Albuquerque Center
04:19PM 34.6636 -102.1800 294° West 401 461 38,000  Level Albuquerque Center
04:20PM 34.7156 -102.3283 293° West 397 457 38,000  Level Albuquerque Center
04:21PM 34.7597 -102.4511 294° West 395 455 38,000  Level Albuquerque Center
04:22PM 34.8025 -102.5744 293° West 396 456 38,000  Level Albuquerque Center
04:23PM 34.8472 -102.6967 294° West 393 452 38,000  Level Albuquerque Center
04:24PM 34.8908 -102.8186 294° West 392 451 38,000  Level Albuquerque Center
04:25PM 34.9333 -102.9408 293° West 389 448 38,000  Level Albuquerque Center
04:26PM 34.9767 -103.0633 293° West 390 449 38,000  Level Albuquerque Center
04:27PM 35.0197 -103.1853 293° West 389 448 38,000  Level Albuquerque Center
04:28PM 35.0622 -103.3081 293° West 390 449 38,000  Level Albuquerque Center
04:29PM 35.1050 -103.4303 293° West 390 449 38,000  Level Albuquerque Center
04:30PM 35.1539 -103.5725 293° West 387 445 38,000  Level Albuquerque Center
04:31PM 35.1964 -103.6931 293° West 385 443 38,000  Level Albuquerque Center
04:32PM 35.2372 -103.8139 293° West 383 441 38,000  Level Albuquerque Center
04:33PM 35.2772 -103.9308 293° West 387 445 38,000  Level Albuquerque Center
04:34PM 35.3186 -104.0539 292° West 391 450 38,000  Level Albuquerque Center
04:35PM 35.3639 -104.1792 294° West 391 450 38,000  Level Albuquerque Center
04:36PM 35.4025 -104.3019 291° West 390 449 38,000  Level Albuquerque Center
04:37PM 35.4492 -104.4444 292° West 385 443 38,000  Level Albuquerque Center
04:38PM 35.4897 -104.5675 292° West 387 445 38,000  Level Albuquerque Center
04:39PM 35.5314 -104.6908 293° West 388 447 38,000  Level Albuquerque Center
04:40PM 35.5794 -104.8369 292° West 392 451 38,000  Level Albuquerque Center
04:41PM 35.6206 -104.9642 292° West 397 457 38,000  Level Albuquerque Center
04:47PM 35.8640 -105.7110 292° West 38,000  Level FlightAware
04:48PM 35.8970 -105.8140 292° West 392 451 38,000  Level FlightAware
04:49PM 35.9250 -105.9000 292° West 390 449 38,000  Level FlightAware
04:50PM 35.9600 -106.0130 291° West 391 450 38,000  Level FlightAware
04:50PM 35.9830 -106.0840 292° West 387 445 38,000  Level FlightAware
04:51PM 36.0090 -106.1690 291° West 387 445 38,000  Level FlightAware
04:52PM 36.0300 -106.2370 291° West 387 445 38,000  Level FlightAware
04:53PM 36.0810 -106.3950 292° West 385 443 38,000  Level FlightAware
04:53PM 36.1040 -106.4690 291° West 385 443 38,000  Level FlightAware
04:54PM 36.1300 -106.5520 291° West 386 444 38,000  Level FlightAware
04:55PM 36.1590 -106.6470 291° West 386 444 38,000  Level FlightAware
04:55PM 36.1720 -106.6890 291° West 386 444 38,000  Level FlightAware
04:56PM 36.2110 -106.8130 291° West 386 444 38,000  Level FlightAware
04:57PM 36.2310 -106.8770 291° West 386 444 38,000  Level FlightAware
04:58PM 36.2560 -106.9570 291° West 386 444 38,000  Level FlightAware
04:58PM 36.2760 -107.0240 290° West 386 444 38,000  Level FlightAware
04:59PM 36.3020 -107.1090 291° West 386 444 38,000  Level FlightAware
05:00PM 36.3570 -107.2900 291° West 381 438 38,000  Level FlightAware
05:01PM 36.3880 -107.3930 291° West 381 438 38,000  Level FlightAware
05:01PM 36.4110 -107.4670 291° West 380 437 38,000  Level FlightAware
05:02PM 36.4360 -107.5540 290° West 380 437 38,000  Level FlightAware
05:03PM 36.4550 -107.6170 291° West 380 437 38,000  Level FlightAware
05:04PM 36.4850 -107.7220 290° West 380 437 38,000  Level FlightAware
05:04PM 36.5040 -107.7870 290° West 380 437 38,000  Level FlightAware
05:05PM 36.5290 -107.8720 290° West 380 437 38,000  Level FlightAware
05:06PM 36.5480 -107.9370 290° West 380 437 38,000  Level FlightAware
05:06PM 36.5660 -108.0000 290° West 380 437 38,000  Level FlightAware
05:07PM 36.5920 -108.0870 290° West 380 437 38,000  Level FlightAware
05:08PM 36.6100 -108.1500 290° West 380 437 38,000  Level FlightAware
05:09PM 36.6340 -108.2330 290° West 380 437 38,000  Level FlightAware
05:09PM 36.6530 -108.2970 290° West 380 437 38,000  Level FlightAware
05:10PM 36.6890 -108.4200 290° West 380 437 38,000  Level FlightAware
05:11PM 36.7150 -108.5070 290° West 380 437 38,000  Level FlightAware
05:12PM 36.8042 -108.8019 290° West 391 450 38,000  Level Denver Center
05:13PM 36.8392 -108.9244 290° West 393 452 38,000  Level Denver Center
05:14PM 36.8733 -109.0442 290° West 387 445 38,000  Level Denver Center
05:15PM 36.9136 -109.1847 290° West 386 444 38,000  Level Denver Center
05:16PM 36.9472 -109.3047 289° West 382 440 38,000  Level Denver Center
05:17PM 36.9872 -109.4461 290° West 386 444 38,000  Level Denver Center
05:18PM 37.0206 -109.5672 289° West 385 443 38,000  Level Denver Center
05:19PM 37.0544 -109.6892 289° West 387 445 38,000  Level Denver Center
05:20PM 37.0939 -109.8300 289° West 384 442 38,000  Level Denver Center
05:21PM 37.1267 -109.9492 289° West 382 440 38,000  Level Denver Center
05:22PM 37.1658 -110.0897 289° West 383 441 38,000  Level Denver Center
05:23PM 37.2006 -110.2183 289° West 380 437 38,000  Level Denver Center
05:24PM 37.2336 -110.3431 288° West 378 435 38,000  Level Denver Center
05:25PM 37.2681 -110.4675 289° West 378 435 38,000  Level Denver Center
05:26PM 37.3019 -110.5933 289° West 381 438 38,000  Level Denver Center
05:28PM 37.3353 -110.7183 289° West 380 437 38,000  Level Denver Center
05:29PM 37.3697 -110.8461 289° West 385 443 38,000  Level Denver Center
05:30PM 37.4036 -110.9725 289° West 383 441 38,000  Level Denver Center
05:31PM 37.4436 -111.1269 288° West 389 448 38,000  Level Denver Center
05:32PM 37.4778 -111.2542 289° West 386 444 38,000  Level Denver Center
05:33PM 37.5108 -111.3817 288° West 384 442 38,000  Level Denver Center
05:34PM 37.5444 -111.5100 288° West 386 444 38,000  Level Denver Center
05:35PM 37.5839 -111.6647 288° West 388 447 38,000  Level Denver Center
05:36PM 37.6178 -111.7956 288° West 394 453 38,000  Level Denver Center
05:37PM 37.6519 -111.9258 288° West 393 452 38,000  Level Salt Lake Center
05:38PM 37.6914 -112.0833 288° West 394 453 38,000  Level Salt Lake Center
05:39PM 37.7247 -112.2128 288° West 391 450 38,000  Level Salt Lake Center
05:40PM 37.7575 -112.3400 288° West 388 447 38,000  Level Salt Lake Center
05:41PM 37.7897 -112.4692 288° West 387 445 38,000  Level Salt Lake Center
05:42PM 37.8214 -112.5975 287° West 387 445 38,000  Level Salt Lake Center
05:43PM 37.8533 -112.7261 287° West 388 447 38,000  Level Salt Lake Center
05:44PM 37.8919 -112.8808 288° West 389 448 38,000  Level Salt Lake Center
05:45PM 37.9214 -113.0086 286° West 385 443 38,000  Level Salt Lake Center
05:46PM 37.9522 -113.1358 287° West 382 440 38,000  Level Salt Lake Center
05:47PM 37.9831 -113.2633 287° West 383 441 38,000  Level Salt Lake Center
05:48PM 38.0147 -113.3922 287° West 384 442 38,000  Level Salt Lake Center
05:49PM 38.0456 -113.5214 287° West 385 443 38,000  Level Salt Lake Center
05:55PM 38.2330 -114.3180 287° West 387 445 38,000  Level FlightAware
05:56PM 38.2520 -114.4030 286° West 387 445 38,000  Level FlightAware
05:57PM 38.2670 -114.4700 286° West 387 445 38,000  Level FlightAware
05:58PM 38.2930 -114.5850 286° West 387 445 38,000  Level FlightAware
05:58PM 38.3080 -114.6520 286° West 387 445 38,000  Level FlightAware
05:59PM 38.3280 -114.7440 286° West 387 445 38,000  Level FlightAware
05:59PM 38.2210 -114.8690 223° Southwest 380 437 38,000  Level FlightAware
06:00PM 38.2130 -114.9960 265° West 380 437 38,000  Level FlightAware
06:01PM 38.2080 -115.0640 265° West 380 437 38,000  Level FlightAware
06:02PM 38.2020 -115.1550 265° West 380 437 38,000  Level FlightAware
06:02PM 38.1970 -115.2250 265° West 380 437 38,000  Level FlightAware
06:03PM 38.1920 -115.2940 265° West 380 437 38,000  Level FlightAware
06:04PM 38.1860 -115.3850 265° West 380 437 38,000  Level FlightAware
06:04PM 38.1810 -115.4530 265° West 380 437 38,000  Level FlightAware
06:05PM 38.1750 -115.5400 265° West 380 437 38,000  Level FlightAware
06:06PM 38.1670 -115.6570 265° West 380 437 38,000  Level FlightAware
06:07PM 38.1620 -115.7250 265° West 380 437 38,000  Level FlightAware
06:08PM 38.1540 -115.8430 265° West 380 437 38,000  Level FlightAware
06:08PM 38.1500 -115.9110 266° West 380 437 38,000  Level FlightAware
06:09PM 38.1430 -116.0020 264° West 380 437 38,000  Level FlightAware
06:10PM 38.1278 -116.2392 264° West 378 435 38,000  Level Salt Lake Center
06:10PM 38.1219 -116.3181 265° West 378 435 38,000  Level Oakland Center
06:11PM 38.1119 -116.4514 265° West 379 436 38,000  Level Oakland Center
06:12PM 38.1067 -116.5061 263° West 381 438 38,000  Level Salt Lake Center
06:13PM 38.0969 -116.6381 265° West 378 435 38,000  Level Salt Lake Center
06:14PM 38.0864 -116.7708 264° West 378 435 38,000  Level Salt Lake Center
06:15PM 38.0756 -116.9036 264° West 377 434 38,000  Level Salt Lake Center
06:15PM 38.0694 -116.9822 264° West 377 434 38,000  Level Oakland Center
06:16PM 38.0581 -117.1172 264° West 377 434 38,000  Level Oakland Center
06:17PM 38.0533 -117.1722 264° West 376 433 38,000  Level Salt Lake Center
06:17PM 38.0464 -117.2553 264° West 381 438 38,000  Level Oakland Center
06:18PM 38.0358 -117.3886 264° West 375 432 38,000  Level Oakland Center
06:19PM 38.0250 -117.5200 264° West 373 429 38,000  Level Oakland Center
06:21PM 38.0131 -117.6533 264° West 377 434 38,000  Level Oakland Center
06:26PM 37.9390 -118.3740 264° West 382 440 38,000  Level FlightAware
06:27PM 37.9300 -118.4540 262° West 382 440 38,000  Level FlightAware
06:27PM 37.9200 -118.5490 262° West 381 438 38,000  Level FlightAware
06:28PM 37.9050 -118.6830 262° West 379 436 38,000  Level FlightAware
06:29PM 37.8960 -118.7640 262° West 379 436 38,000  Level FlightAware
06:30PM 37.8840 -118.8550 261° West 379 436 38,000  Level FlightAware
06:30PM 37.8760 -118.9220 261° West 379 436 38,000 -1,320 Level FlightAware
06:31PM 37.8620 -119.0590 263° West 389 448 36,200 -1,320 Descending FlightAware
06:32PM 37.8510 -119.1590 262° West 389 448 36,000 -180 Descending FlightAware
06:32PM 37.8400 -119.2490 261° West 392 451 36,000  Level FlightAware
06:33PM 37.8290 -119.3400 261° West 393 452 36,000  Level FlightAware
06:34PM 37.8180 -119.4340 262° West 392 451 36,000  Level FlightAware
06:34PM 37.8070 -119.5300 262° West 392 451 36,000  Level FlightAware
06:35PM 37.7970 -119.6110 261° West 391 450 36,000  Level FlightAware
06:36PM 37.7840 -119.7200 261° West 389 448 36,000  Level FlightAware
06:37PM 37.7720 -119.8180 261° West 389 448 36,000  Level FlightAware
06:37PM 37.7610 -119.9080 261° West 389 448 36,000  Level FlightAware
06:38PM 37.7515 -119.9860 261° West 389 448 36,000 -240 Level FlightAware ADS-B
06:38PM 37.7431 -120.0540 261° West 390 449 35,800 -780 Descending FlightAware ADS-B
06:39PM 37.7333 -120.1330 261° West 390 449 35,200 -1,020 Descending FlightAware ADS-B
06:39PM 37.7246 -120.2040 261° West 393 452 34,700 -1,020 Descending FlightAware ADS-B
06:40PM 37.7158 -120.2730 261° West 397 457 34,200 -1,800 Descending FlightAware ADS-B
06:40PM 37.7071 -120.3430 261° West 396 456 32,900 -2,820 Descending FlightAware ADS-B
06:41PM 37.6982 -120.4140 261° West 399 459 31,300 -2,820 Descending FlightAware ADS-B
06:42PM 37.6877 -120.4930 260° West 399 459 29,900 -2,520 Descending FlightAware ADS-B
06:42PM 37.6770 -120.5760 261° West 400 460 28,400 -2,520 Descending FlightAware ADS-B
06:43PM 37.6666 -120.6590 261° West 400 460 26,900 -2,220 Descending FlightAware ADS-B
06:44PM 37.6521 -120.7690 261° West 379 436 25,300 -2,220 Descending FlightAware ADS-B
06:44PM 37.6400 -120.8590 260° West 373 429 23,500 -2,880 Descending FlightAware
06:45PM 37.6290 -120.9460 261° West 378 435 21,400 -2,760 Descending FlightAware
06:46PM 37.6180 -121.0420 262° West 366 421 19,600 -2,340 Descending FlightAware
06:46PM 37.6127 -121.0890 262° West 361 415 18,800 -1,980 Descending FlightAware ADS-B
06:47PM 37.6057 -121.1510 262° West 347 399 17,900 -1,800 Descending FlightAware ADS-B
06:47PM 37.5989 -121.2110 262° West 335 386 17,000 -1,920 Descending FlightAware ADS-B
06:48PM 37.5919 -121.2710 262° West 331 381 15,900 -2,040 Descending FlightAware ADS-B
06:48PM 37.5851 -121.3290 262° West 328 377 14,900 -2,100 Descending FlightAware ADS-B
06:49PM 37.5786 -121.3860 262° West 324 373 13,800 -2,160 Descending FlightAware ADS-B
06:49PM 37.5736 -121.4300 262° West 322 371 13,000 -2,040 Descending FlightAware ADS-B
06:49PM 37.5671 -121.4860 262° West 324 373 12,000 -2,040 Descending FlightAware ADS-B
06:50PM 37.5638 -121.5130 261° West 324 373 11,500 -1,920 Descending FlightAware ADS-B
06:50PM 37.5627 -121.5210 260° West 325 374 11,400 -1,260 Descending FlightAware ADS-B
06:50PM 37.5508 -121.5750 254° West 314 361 10,800 -600 Descending FlightAware ADS-B
06:51PM 37.5394 -121.6260 254° West 285 328 10,800 -840 Level FlightAware ADS-B
06:51PM 37.5295 -121.6690 254° West 284 327 10,000 -1,680 Descending FlightAware ADS-B
06:52PM 37.5241 -121.6940 255° West 281 323 9,600 -1,380 Descending FlightAware ADS-B
06:52PM 37.5188 -121.7170 254° West 278 320 9,300 -1,200 Descending FlightAware ADS-B
06:52PM 37.5152 -121.7330 254° West 277 319 9,100 -1,440 Descending FlightAware ADS-B
06:52PM 37.5100 -121.7560 254° West 273 314 8,700 -1,200 Descending FlightAware ADS-B
06:52PM 37.5046 -121.7800 254° West 269 310 8,500 -840 Descending FlightAware ADS-B
06:53PM 37.4996 -121.8020 254° West 260 299 8,300 -780 Descending FlightAware ADS-B
06:53PM 37.4945 -121.8240 254° West 252 290 8,100 -780 Descending FlightAware ADS-B
06:53PM 37.4897 -121.8460 255° West 247 284 7,900 -600 Descending FlightAware ADS-B
06:53PM 37.4852 -121.8660 254° West 240 276 7,800 -360 Descending FlightAware ADS-B
06:54PM 37.4844 -121.8700 256° West 234 269 7,800  Level FlightAware ADS-B
06:54PM 37.4839 -121.8740 261° West 230 265 7,800  Level FlightAware ADS-B
06:54PM 37.4836 -121.8810 267° West 224 258 7,800  Level FlightAware ADS-B
06:54PM 37.4837 -121.8850 272° West 222 255 7,800 -900 Level FlightAware ADS-B
06:54PM 37.4840 -121.8890 275° West 220 253 7,700 -1,500 Descending FlightAware ADS-B
06:54PM 37.4848 -121.8940 281° West 219 252 7,600 -1,740 Descending FlightAware ADS-B
06:54PM 37.4856 -121.8980 284° West 217 250 7,500 -1,500 Descending FlightAware ADS-B
06:54PM 37.4888 -121.9140 284° West 210 242 7,200 -1,080 Descending FlightAware ADS-B
06:54PM 37.4921 -121.9320 283° West 199 229 7,000 -1,020 Descending FlightAware ADS-B
06:55PM 37.4954 -121.9490 284° West 193 222 6,700 -1,140 Descending FlightAware ADS-B
06:55PM 37.4994 -121.9680 285° West 190 219 6,400 -1,140 Descending FlightAware ADS-B
06:55PM 37.5027 -121.9840 285° West 187 215 6,100 -1,080 Descending FlightAware ADS-B
06:55PM 37.5055 -121.9980 284° West 186 214 5,900 -960 Descending FlightAware ADS-B
06:55PM 37.5069 -122.0030 289° West 187 215 5,800 -1,140 Descending FlightAware ADS-B
06:56PM 37.5123 -122.0210 291° West 188 216 5,500 -1,140 Descending FlightAware ADS-B
06:56PM 37.5171 -122.0360 292° West 187 215 5,200 -1,140 Descending FlightAware ADS-B
06:56PM 37.5220 -122.0520 291° West 182 209 4,900 -1,200 Descending FlightAware ADS-B
06:57PM 37.5266 -122.0670 291° West 180 207 4,600 -1,200 Descending FlightAware ADS-B
06:57PM 37.5311 -122.0820 291° West 179 206 4,300 -1,080 Descending FlightAware ADS-B
06:57PM 37.5351 -122.0950 291° West 178 205 4,100 -840 Descending FlightAware ADS-B
06:57PM 37.5394 -122.1100 290° West 172 198 3,900 -1,020 Descending FlightAware ADS-B
06:58PM 37.5436 -122.1230 292° West 165 190 3,600 -1,020 Descending FlightAware ADS-B
06:58PM 37.5479 -122.1370 291° West 160 184 3,400 -840 Descending FlightAware ADS-B
06:58PM 37.5511 -122.1480 290° West 153 176 3,200 -900 Descending FlightAware ADS-B
06:58PM 37.5529 -122.1540 291° West 152 175 3,100 -780 Descending FlightAware ADS-B
06:58PM 37.5549 -122.1610 290° West 152 175 3,000 -1,080 Descending FlightAware ADS-B
06:59PM 37.5587 -122.1730 292° West 149 171 2,700 -1,020 Descending FlightAware ADS-B
06:59PM 37.5626 -122.1850 292° West 149 171 2,500 -840 Descending FlightAware ADS-B
06:59PM 37.5647 -122.1920 291° West 147 169 2,400 -780 Descending FlightAware ADS-B
06:59PM 37.5684 -122.2040 291° West 145 167 2,200 -780 Descending FlightAware ADS-B
06:59PM 37.5721 -122.2160 291° West 145 167 2,000 -840 Descending FlightAware ADS-B
07:00PM 37.5741 -122.2220 293° West 144 166 1,900 -900 Descending FlightAware ADS-B
07:00PM 37.5775 -122.2330 291° West 144 166 1,700 -1,080 Descending FlightAware ADS-B
07:00PM 37.5784 -122.2360 291° West 145 167 1,600 -780 Descending FlightAware ADS-B
07:00PM 37.5790 -122.2390 284° West 145 167 1,600  Level FlightAware ADS-B
07:00PM 37.5796 -122.2440 279° West 146 168 1,600 -600 Level FlightAware ADS-B
07:00PM 37.5810 -122.2570 278° West 142 163 1,400 -480 Descending FlightAware ADS-B
07:00PM 37.5819 -122.2640 279° West 137 158 1,400 -360 Level FlightAware ADS-B
07:01PM 37.5832 -122.2720 282° West 130 150 1,300 -420 Descending FlightAware ADS-B
07:01PM 37.5839 -122.2760 282° West 131 151 1,300 -720 Level FlightAware ADS-B
07:01PM 37.5853 -122.2840 282° West 130 150 1,100 -720 Descending FlightAware ADS-B
07:01PM 37.5863 -122.2880 288° West 131 151 1,100 -600 Level FlightAware ADS-B
07:01PM 37.5872 -122.2910 291° West 131 151 1,000 -840 Descending FlightAware ADS-B
07:01PM 37.5900 -122.2990 294° West 133 153 900 -720 Descending FlightAware ADS-B
07:01PM 37.5938 -122.3100 294° West 135 155 700 -720 Descending FlightAware ADS-B
07:02PM 37.5995 -122.3240 297° West 134 154 500 -660 Descending FlightAware ADS-B
07:02PM 37.6020 -122.3300 298° West 133 153 400 -960 Descending FlightAware ADS-B
07:02PM 37.6049 -122.3360 301° West 133 153 200 -900 Descending FlightAware ADS-B
07:02PM 37.6060 -122.3390 295° West 132 152 200  Level FlightAware ADS-B
07:02PM 37.6103 -122.3500 296° West 127 146 -780 Descending FlightAware ADS-B
07:03PM 37.6210 -122.3750 298° West 41 47  Level FlightAware
07:04PM 37.6210 -122.3770 270° West 18 21  Level FlightAware